Cyr Plt, Maine
Current Conditions -  °F | °C
As of 3:54 PM on Friday 28 Nov 2014 (Local Time) from KCAR Reporting Station
Overcast Overcast  
Wind Chill: 17°   Ceiling: 2300
Heat Index: 17°   Visibility: 10mi
Dew Point:   Wind: 3mph
Humidity: 71%   Direction: 360°N
Pressure: 29.99"   Gusts: NA
Location:  47.123°N, 67.9773°W
Report Text: KCAR 282054Z AUTO 36003KT 10SM OVC023 M08/M13 A2999 RMK AO2 SLP171 T10831128 53009
Loading
Personal Weather Stations






























Interactive Weather Map New forecast layout! Learn more

10-Day Weather Forecast

Advertisements
Track Severe Weather on mobile